createdAt,value
2022-07-30T00:01:22.012Z,19.60
2022-07-30T00:03:49.529Z,19.60
2022-07-30T00:06:18.968Z,19.60
2022-07-30T00:08:46.203Z,19.60
2022-07-30T00:11:13.555Z,19.60
2022-07-30T00:13:40.773Z,19.60
2022-07-30T00:16:08.078Z,19.60
2022-07-30T00:18:35.403Z,19.60
2022-07-30T00:21:02.735Z,19.60
2022-07-30T00:23:30.088Z,19.60
2022-07-30T00:25:57.295Z,19.60
2022-07-30T00:28:24.610Z,19.60
2022-07-30T00:30:55.013Z,19.60
2022-07-30T00:33:23.728Z,19.60
2022-07-30T00:35:50.953Z,19.60
2022-07-30T00:38:18.287Z,19.60
2022-07-30T00:40:48.053Z,19.60
2022-07-30T00:43:17.122Z,19.60
2022-07-30T00:45:45.440Z,19.60
2022-07-30T00:48:17.133Z,19.60
2022-07-30T00:50:45.219Z,19.60
2022-07-30T00:53:12.789Z,19.50
2022-07-30T00:55:40.187Z,19.50
2022-07-30T00:58:07.454Z,19.50
2022-07-30T01:00:36.887Z,19.50
2022-07-30T01:03:04.984Z,19.50
2022-07-30T01:05:32.483Z,19.60
2022-07-30T01:07:59.810Z,19.50
2022-07-30T01:10:27.134Z,19.50
2022-07-30T01:12:55.131Z,19.50
2022-07-30T01:15:22.696Z,19.50
2022-07-30T01:17:53.077Z,19.50
2022-07-30T01:20:35.489Z,19.50
2022-07-30T01:23:21.094Z,19.50
2022-07-30T01:26:02.358Z,19.50
2022-07-30T01:28:52.240Z,19.50
2022-07-30T01:31:24.636Z,19.50
2022-07-30T01:33:52.232Z,19.50
2022-07-30T01:36:22.511Z,19.50
2022-07-30T01:38:51.557Z,19.50
2022-07-30T01:41:20.150Z,19.50
2022-07-30T01:43:47.807Z,19.50
2022-07-30T01:46:17.935Z,19.50
2022-07-30T01:48:48.304Z,19.50
2022-07-30T01:51:18.537Z,19.50
2022-07-30T01:53:51.266Z,19.40
2022-07-30T01:56:25.139Z,19.50
2022-07-30T01:58:55.805Z,19.50
2022-07-30T02:01:26.240Z,19.50
2022-07-30T02:04:01.247Z,19.50
2022-07-30T02:07:04.433Z,19.40
2022-07-30T02:09:38.247Z,19.50
2022-07-30T02:12:30.136Z,19.40
2022-07-30T02:15:27.925Z,19.50
2022-07-30T02:18:08.119Z,19.40
2022-07-30T02:20:35.987Z,19.40
2022-07-30T02:23:10.944Z,19.40
2022-07-30T02:25:44.007Z,19.40
2022-07-30T02:28:14.700Z,19.40
2022-07-30T02:30:54.980Z,19.40
2022-07-30T02:33:26.725Z,19.40
2022-07-30T02:35:56.025Z,19.40
2022-07-30T02:38:25.636Z,19.40
2022-07-30T02:40:54.762Z,19.40
2022-07-30T02:43:26.238Z,19.30
2022-07-30T02:45:54.246Z,19.40
2022-07-30T02:48:34.406Z,19.40
2022-07-30T02:51:05.126Z,19.30
2022-07-30T02:53:34.099Z,19.40
2022-07-30T02:56:03.352Z,19.30
2022-07-30T02:58:34.415Z,19.30
2022-07-30T03:01:04.062Z,19.30
2022-07-30T03:03:32.536Z,19.30
2022-07-30T03:06:00.746Z,19.40
2022-07-30T03:08:29.246Z,19.30
2022-07-30T03:10:57.438Z,19.30
2022-07-30T03:13:26.192Z,19.30
2022-07-30T03:15:57.030Z,19.30
2022-07-30T03:18:28.205Z,19.20
2022-07-30T03:21:00.861Z,19.30
2022-07-30T03:23:29.509Z,19.30
2022-07-30T03:26:02.584Z,19.30
2022-07-30T03:28:36.686Z,19.20
2022-07-30T03:31:04.875Z,19.30
2022-07-30T03:33:38.639Z,19.20
2022-07-30T03:36:07.187Z,19.30
2022-07-30T03:38:37.908Z,19.20
2022-07-30T03:41:07.859Z,19.20
2022-07-30T03:43:36.207Z,19.20
2022-07-30T03:46:05.804Z,19.20
2022-07-30T03:48:37.145Z,19.20
2022-07-30T03:51:07.738Z,19.20
2022-07-30T03:53:35.293Z,19.20
2022-07-30T03:56:28.326Z,19.20
2022-07-30T03:58:58.625Z,19.20
2022-07-30T04:01:27.052Z,19.20
2022-07-30T04:04:09.128Z,19.20
2022-07-30T04:06:40.996Z,19.20
2022-07-30T04:09:09.982Z,19.20
2022-07-30T04:11:40.621Z,19.20
2022-07-30T04:14:11.604Z,19.20
2022-07-30T04:16:57.029Z,19.20
2022-07-30T04:19:31.306Z,19.20
2022-07-30T04:22:01.216Z,19.20
2022-07-30T04:24:31.444Z,19.20
2022-07-30T04:27:02.763Z,19.20
2022-07-30T04:29:31.380Z,19.20
2022-07-30T04:31:58.912Z,19.20
2022-07-30T04:34:53.635Z,19.20
2022-07-30T04:37:39.292Z,19.20
2022-07-30T04:40:07.740Z,19.20
2022-07-30T04:42:35.359Z,19.20
2022-07-30T04:45:09.502Z,19.20
2022-07-30T04:47:49.876Z,19.20
2022-07-30T04:50:49.962Z,19.20
2022-07-30T04:53:19.971Z,19.20
2022-07-30T04:55:56.738Z,19.20
2022-07-30T04:58:28.735Z,19.20
2022-07-30T05:00:58.537Z,19.20
2022-07-30T05:03:31.877Z,19.20
2022-07-30T05:06:01.383Z,19.20
2022-07-30T05:08:32.860Z,19.20
2022-07-30T05:11:04.226Z,19.30
2022-07-30T05:13:34.459Z,19.30
2022-07-30T05:16:04.351Z,19.30
2022-07-30T05:18:31.816Z,19.20
2022-07-30T05:20:59.513Z,19.30
2022-07-30T05:23:31.253Z,19.30
2022-07-30T05:26:22.002Z,19.30
2022-07-30T05:28:56.981Z,19.30
2022-07-30T05:31:38.618Z,19.30
2022-07-30T05:34:07.219Z,19.30
2022-07-30T05:36:45.291Z,19.30
2022-07-30T05:39:15.499Z,19.30
2022-07-30T05:42:02.792Z,19.30
2022-07-30T05:44:53.189Z,19.30
2022-07-30T05:47:22.785Z,19.30
2022-07-30T05:49:50.605Z,19.30
2022-07-30T05:52:19.094Z,19.30
2022-07-30T05:54:46.592Z,19.30
2022-07-30T05:57:36.596Z,19.30
2022-07-30T06:00:06.550Z,19.30
2022-07-30T06:02:52.122Z,19.30
2022-07-30T06:05:54.778Z,19.40
2022-07-30T06:08:22.041Z,19.40
2022-07-30T06:10:49.395Z,19.40
2022-07-30T06:13:16.711Z,19.40
2022-07-30T06:15:44.408Z,19.40
2022-07-30T06:18:11.769Z,19.40
2022-07-30T06:20:52.274Z,19.40
2022-07-30T06:23:25.644Z,19.40
2022-07-30T06:26:11.759Z,19.40
2022-07-30T06:28:40.208Z,19.40
2022-07-30T06:31:17.178Z,19.40
2022-07-30T06:33:47.422Z,19.40
2022-07-30T06:36:15.190Z,19.40
2022-07-30T06:38:55.639Z,19.40
2022-07-30T06:41:34.940Z,19.50
2022-07-30T06:44:02.220Z,19.50
2022-07-30T06:46:49.770Z,19.50
2022-07-30T06:49:19.170Z,19.50
2022-07-30T06:51:46.836Z,19.50
2022-07-30T06:54:14.102Z,19.50
2022-07-30T06:57:02.541Z,19.50
2022-07-30T06:59:30.369Z,19.50
2022-07-30T07:01:57.651Z,19.50
2022-07-30T07:04:25.187Z,19.60
2022-07-30T07:06:53.395Z,19.60
2022-07-30T07:09:33.378Z,19.60
2022-07-30T07:12:28.782Z,19.70
2022-07-30T07:14:56.126Z,19.70
2022-07-30T07:17:23.718Z,19.70
2022-07-30T07:20:19.955Z,19.80
2022-07-30T07:22:53.206Z,19.80
2022-07-30T07:25:21.616Z,19.80
2022-07-30T07:28:12.258Z,19.80
2022-07-30T07:30:37.808Z,19.80
2022-07-30T07:33:07.386Z,19.80
2022-07-30T07:35:48.512Z,19.90
2022-07-30T07:38:22.522Z,19.90
2022-07-30T07:40:51.032Z,19.90
2022-07-30T07:43:18.787Z,20.00
2022-07-30T07:45:46.405Z,20.00
2022-07-30T07:48:14.748Z,20.00
2022-07-30T07:50:51.289Z,20.00
2022-07-30T07:53:24.664Z,20.00
2022-07-30T07:55:53.072Z,20.00
2022-07-30T07:58:26.041Z,20.00
2022-07-30T08:00:57.442Z,20.00
2022-07-30T08:03:42.873Z,20.10
2022-07-30T08:06:30.112Z,20.10
2022-07-30T08:09:23.470Z,20.00
2022-07-30T08:12:17.191Z,20.10
2022-07-30T08:14:50.782Z,20.10
2022-07-30T08:17:46.482Z,20.10
2022-07-30T08:20:18.162Z,20.10
2022-07-30T08:22:45.716Z,20.10
2022-07-30T08:25:22.433Z,20.10
2022-07-30T08:27:53.248Z,20.00
2022-07-30T08:30:21.055Z,20.00
2022-07-30T08:32:48.496Z,20.00
2022-07-30T08:35:15.918Z,20.00
2022-07-30T08:37:43.354Z,20.00
2022-07-30T08:40:11.298Z,19.90
2022-07-30T08:42:50.542Z,19.90
2022-07-30T08:45:18.562Z,19.90
2022-07-30T08:47:47.218Z,19.90
2022-07-30T08:50:22.745Z,19.90
2022-07-30T08:53:14.080Z,19.90
2022-07-30T08:55:42.468Z,19.90
2022-07-30T08:58:30.960Z,19.90
2022-07-30T09:00:58.684Z,19.90
2022-07-30T09:03:29.298Z,19.80
2022-07-30T09:06:02.742Z,19.80
2022-07-30T09:08:30.877Z,19.80
2022-07-30T09:10:59.065Z,19.80
2022-07-30T09:13:32.711Z,19.80
2022-07-30T09:16:03.288Z,19.90
2022-07-30T09:18:40.008Z,19.80
2022-07-30T09:21:26.623Z,19.70
2022-07-30T09:24:12.390Z,19.60
2022-07-30T09:27:01.621Z,19.60
2022-07-30T09:29:37.904Z,19.60
2022-07-30T09:32:23.843Z,19.60
2022-07-30T09:35:15.141Z,19.50
2022-07-30T09:38:07.347Z,19.50
2022-07-30T09:41:08.194Z,19.40
2022-07-30T09:44:06.453Z,19.30
2022-07-30T09:46:52.800Z,19.30
2022-07-30T09:49:42.122Z,19.30
2022-07-30T09:52:29.092Z,19.20
2022-07-30T09:54:56.721Z,19.10
2022-07-30T09:57:28.852Z,19.10
2022-07-30T10:00:23.469Z,18.90
2022-07-30T10:03:21.616Z,19.00
2022-07-30T10:06:38.236Z,18.90
2022-07-30T10:09:52.634Z,18.90
2022-07-30T10:12:23.967Z,18.90
2022-07-30T10:14:54.441Z,18.80
2022-07-30T10:17:22.745Z,18.80
2022-07-30T10:20:22.926Z,18.80
2022-07-30T10:23:11.229Z,18.70
2022-07-30T10:26:17.239Z,18.70
2022-07-30T10:29:12.989Z,18.60
2022-07-30T10:31:48.748Z,18.60
2022-07-30T10:34:19.607Z,18.60
2022-07-30T10:36:56.249Z,18.60
2022-07-30T10:39:50.822Z,18.50
2022-07-30T10:42:39.268Z,18.50
2022-07-30T10:45:18.221Z,18.50
2022-07-30T10:47:50.463Z,18.60
2022-07-30T10:50:22.263Z,18.60
2022-07-30T10:52:58.959Z,18.70
2022-07-30T10:55:39.294Z,18.70
2022-07-30T10:58:15.572Z,18.70
2022-07-30T11:00:52.352Z,18.70
2022-07-30T11:03:22.169Z,18.70
2022-07-30T11:05:51.719Z,18.70
2022-07-30T11:08:42.586Z,18.80
2022-07-30T11:12:01.868Z,18.80
2022-07-30T11:14:20.452Z,18.70
2022-07-30T11:16:51.500Z,18.80
2022-07-30T11:19:55.189Z,18.90
2022-07-30T11:22:27.118Z,18.80
2022-07-30T11:24:55.181Z,18.70
2022-07-30T11:27:45.882Z,18.70
2022-07-30T11:30:17.143Z,18.60
2022-07-30T11:32:48.534Z,18.70
2022-07-30T11:35:34.476Z,18.70
2022-07-30T11:38:09.676Z,18.70
2022-07-30T11:40:59.997Z,18.60
2022-07-30T11:43:34.823Z,18.60
2022-07-30T11:46:15.750Z,18.60
2022-07-30T11:48:59.837Z,18.50
2022-07-30T11:51:27.438Z,18.50
2022-07-30T11:54:05.941Z,18.50
2022-07-30T11:56:33.816Z,18.60
2022-07-30T11:59:03.448Z,18.60
2022-07-30T12:01:31.766Z,18.50
2022-07-30T12:04:02.381Z,18.60
2022-07-30T12:06:32.192Z,18.60
2022-07-30T12:09:00.468Z,18.60
2022-07-30T12:11:35.648Z,18.60
2022-07-30T12:14:03.989Z,18.60
2022-07-30T12:16:32.829Z,18.60
2022-07-30T12:19:06.155Z,18.50
2022-07-30T12:21:34.332Z,18.50
2022-07-30T12:24:03.872Z,18.60
2022-07-30T12:26:34.890Z,18.60
2022-07-30T12:29:05.711Z,18.60
2022-07-30T12:31:34.073Z,18.50
2022-07-30T12:34:05.812Z,18.50
2022-07-30T12:36:34.843Z,18.50
2022-07-30T12:39:04.006Z,18.60
2022-07-30T12:41:49.720Z,18.50
2022-07-30T12:44:44.790Z,18.60
2022-07-30T12:47:29.666Z,18.60
2022-07-30T12:50:00.700Z,18.50
2022-07-30T12:52:34.646Z,18.50
2022-07-30T12:55:13.207Z,18.50
2022-07-30T12:57:57.310Z,18.50
2022-07-30T13:00:46.779Z,18.50
2022-07-30T13:03:28.769Z,18.50
2022-07-30T13:05:57.412Z,18.50
2022-07-30T13:08:50.867Z,18.40
2022-07-30T13:11:20.308Z,18.40
2022-07-30T13:13:48.377Z,18.40
2022-07-30T13:16:15.773Z,18.40
2022-07-30T13:18:43.486Z,18.40
2022-07-30T13:21:11.527Z,18.40
2022-07-30T13:23:40.251Z,18.30
2022-07-30T13:26:09.254Z,18.30
2022-07-30T13:28:36.627Z,18.20
2022-07-30T13:31:04.229Z,18.20
2022-07-30T13:33:31.684Z,18.20
2022-07-30T13:35:59.418Z,18.20
2022-07-30T13:38:28.398Z,18.20
2022-07-30T13:41:00.357Z,18.20
2022-07-30T13:43:29.753Z,18.10
2022-07-30T13:46:05.936Z,18.10
2022-07-30T13:48:33.882Z,18.00
2022-07-30T13:51:01.700Z,18.00
2022-07-30T13:53:29.701Z,18.00
2022-07-30T13:55:57.048Z,17.90
2022-07-30T13:58:24.414Z,17.90
2022-07-30T14:00:51.977Z,17.90
2022-07-30T14:03:19.385Z,17.80
2022-07-30T14:05:48.552Z,17.80
2022-07-30T14:08:16.285Z,17.80
2022-07-30T14:10:43.899Z,17.70
2022-07-30T14:19:07.412Z,17.50
2022-07-30T14:21:34.748Z,17.60
2022-07-30T14:24:02.085Z,17.70
2022-07-30T14:26:36.649Z,17.60
2022-07-30T14:29:07.970Z,17.60
2022-07-30T14:31:35.847Z,17.60
2022-07-30T14:34:04.168Z,17.60
2022-07-30T14:36:31.479Z,17.60
2022-07-30T14:38:59.961Z,17.60
2022-07-30T14:41:28.517Z,17.60
2022-07-30T14:43:55.960Z,17.60
2022-07-30T14:46:24.049Z,17.70
2022-07-30T14:48:51.421Z,17.80
2022-07-30T14:51:24.359Z,17.80
2022-07-30T14:53:54.009Z,17.80
2022-07-30T14:56:24.130Z,17.90
2022-07-30T14:58:52.511Z,18.00
2022-07-30T15:01:20.003Z,18.00
2022-07-30T15:03:47.590Z,18.00
2022-07-30T15:06:15.694Z,18.00
2022-07-30T15:08:44.093Z,18.10
2022-07-30T15:11:11.515Z,18.10
2022-07-30T15:13:50.220Z,18.00
2022-07-30T15:16:19.328Z,18.00
2022-07-30T15:18:47.131Z,18.10
2022-07-30T15:21:14.505Z,18.10
2022-07-30T15:23:42.272Z,18.00
2022-07-30T15:26:09.601Z,18.10
2022-07-30T15:28:36.904Z,18.00
2022-07-30T15:31:04.556Z,18.00
2022-07-30T15:33:36.972Z,18.00
2022-07-30T15:36:04.614Z,18.00
2022-07-30T15:38:31.933Z,17.90
2022-07-30T15:40:59.333Z,18.00
2022-07-30T15:43:26.642Z,17.90
2022-07-30T15:45:56.308Z,17.90
2022-07-30T15:48:27.937Z,17.90
2022-07-30T15:51:03.883Z,17.90
2022-07-30T15:53:34.355Z,17.90
2022-07-30T15:56:01.799Z,17.90
2022-07-30T15:58:29.236Z,17.90
2022-07-30T16:00:56.847Z,17.90
2022-07-30T16:03:24.455Z,17.80
2022-07-30T16:05:53.031Z,17.70
2022-07-30T16:08:21.392Z,17.70
2022-07-30T16:10:49.205Z,17.70
2022-07-30T16:13:16.715Z,17.70
2022-07-30T16:15:44.308Z,17.60
2022-07-30T16:18:11.621Z,17.70
2022-07-30T16:20:39.077Z,17.60
2022-07-30T16:23:12.026Z,17.70
2022-07-30T16:25:41.289Z,17.70
2022-07-30T16:28:08.681Z,17.70
2022-07-30T16:30:36.051Z,17.70
2022-07-30T16:33:18.923Z,17.70
2022-07-30T16:35:48.583Z,17.60
2022-07-30T16:38:16.877Z,17.70
2022-07-30T16:40:44.264Z,17.60
2022-07-30T16:43:11.690Z,17.60
2022-07-30T16:45:39.056Z,17.70
2022-07-30T16:48:06.790Z,17.60
2022-07-30T16:50:34.029Z,17.60
2022-07-30T16:53:01.373Z,17.60
2022-07-30T16:55:28.640Z,17.60
2022-07-30T16:57:55.986Z,17.60
2022-07-30T17:00:23.344Z,17.60
2022-07-30T17:02:51.046Z,17.60
2022-07-30T17:05:18.703Z,17.50
2022-07-30T17:07:46.026Z,17.50
2022-07-30T17:10:13.279Z,17.50
2022-07-30T17:12:41.304Z,17.50
2022-07-30T17:15:18.091Z,17.50
2022-07-30T17:17:46.229Z,17.50
2022-07-30T17:20:14.713Z,17.40
2022-07-30T17:22:43.224Z,17.40
2022-07-30T17:25:10.925Z,17.30
2022-07-30T17:27:38.614Z,17.30
2022-07-30T17:30:06.980Z,17.40
2022-07-30T17:32:34.303Z,17.40
2022-07-30T17:35:01.673Z,17.30
2022-07-30T17:37:29.074Z,17.30
2022-07-30T17:40:29.819Z,17.30
2022-07-30T17:42:47.112Z,17.30
2022-07-30T17:45:14.556Z,17.30
2022-07-30T17:47:41.864Z,17.30
2022-07-30T17:50:10.828Z,17.20
2022-07-30T17:52:40.019Z,17.30
2022-07-30T17:55:11.382Z,17.20
2022-07-30T17:57:39.058Z,17.20
2022-07-30T18:00:09.355Z,17.20
2022-07-30T18:02:36.918Z,17.20
2022-07-30T18:05:04.498Z,17.20
2022-07-30T18:07:31.901Z,17.10
2022-07-30T18:09:59.222Z,17.20
2022-07-30T18:12:26.633Z,17.20
2022-07-30T18:14:53.897Z,17.20
2022-07-30T18:17:21.307Z,17.20
2022-07-30T18:19:50.563Z,17.10
2022-07-30T18:22:29.532Z,17.20
2022-07-30T18:25:00.493Z,17.20
2022-07-30T18:27:28.273Z,17.20
2022-07-30T18:29:55.633Z,17.20
2022-07-30T18:32:23.707Z,17.20
2022-07-30T18:34:51.933Z,17.30
2022-07-30T18:37:19.373Z,17.20
2022-07-30T18:39:46.733Z,17.10
2022-07-30T18:42:14.178Z,17.10
2022-07-30T18:44:41.467Z,17.20
2022-07-30T18:47:08.923Z,17.10
2022-07-30T18:49:37.835Z,17.10
2022-07-30T18:52:07.606Z,17.10
2022-07-30T18:54:37.243Z,17.10
2022-07-30T18:57:05.572Z,17.10
2022-07-30T18:59:33.234Z,17.10
2022-07-30T19:02:01.627Z,17.00
2022-07-30T19:04:29.181Z,17.00
2022-07-30T19:06:56.572Z,17.00
2022-07-30T19:09:23.824Z,17.00
2022-07-30T19:14:55.930Z,17.00
2022-07-30T19:20:58.712Z,16.90
2022-07-30T19:24:22.372Z,16.90
2022-07-30T19:36:30.656Z,16.80
